createdAt,value
2019-02-22T05:02:27.779Z,95.66
2019-02-22T05:04:58.357Z,95.61
2019-02-22T05:07:28.841Z,95.88
2019-02-22T05:09:59.683Z,95.70
2019-02-22T05:12:30.219Z,95.33
2019-02-22T05:15:12.077Z,94.69
2019-02-22T05:17:35.677Z,94.87
2019-02-22T05:20:05.688Z,95.27
2019-02-22T05:22:36.186Z,95.38
2019-02-22T05:25:07.831Z,95.50
2019-02-22T05:27:38.251Z,95.33
2019-02-22T05:30:09.331Z,94.76
2019-02-22T05:32:40.098Z,94.42
2019-02-22T05:35:12.382Z,94.63
2019-02-22T05:37:42.894Z,94.51
2019-02-22T05:40:13.419Z,94.58
2019-02-22T05:42:44.621Z,95.00
2019-02-22T05:45:15.112Z,95.31
2019-02-22T05:47:45.598Z,95.20
2019-02-22T05:50:16.251Z,95.46
2019-02-22T05:52:46.743Z,95.93
2019-02-22T05:55:17.428Z,95.81
2019-02-22T05:57:47.902Z,95.06
2019-02-22T06:00:19.160Z,95.19
2019-02-22T06:02:49.758Z,94.78
2019-02-22T06:05:20.388Z,95.28
2019-02-22T06:07:50.879Z,94.97
2019-02-22T06:10:21.375Z,95.31
2019-02-22T06:12:51.868Z,95.18
2019-02-22T06:15:22.494Z,95.07
2019-02-22T06:17:53.054Z,94.96
2019-02-22T06:20:23.624Z,94.45
2019-02-22T06:22:54.075Z,93.98
2019-02-22T06:25:24.639Z,94.52
2019-02-22T06:27:55.226Z,94.03
2019-02-22T06:30:25.896Z,93.05
2019-02-22T06:32:56.444Z,93.35
2019-02-22T06:35:26.951Z,94.00
2019-02-22T06:37:57.529Z,94.74
2019-02-22T06:40:28.149Z,94.74
2019-02-22T06:42:58.641Z,95.01
2019-02-22T06:45:29.131Z,94.62
2019-02-22T06:47:59.710Z,94.54
2019-02-22T06:53:02.421Z,94.15
2019-02-22T06:55:32.948Z,94.34
2019-02-22T06:58:03.388Z,94.82
2019-02-22T07:00:33.877Z,95.17
2019-02-22T07:03:04.558Z,94.92
2019-02-22T07:05:35.035Z,95.05
2019-02-22T07:08:05.562Z,94.67
2019-02-22T07:11:13.450Z,94.73
2019-02-22T07:13:43.957Z,94.62
2019-02-22T07:16:14.481Z,94.57
2019-02-22T07:18:45.022Z,94.76
2019-02-22T07:21:15.527Z,94.43
2019-02-22T07:23:46.034Z,94.46
2019-02-22T07:26:16.541Z,94.74
2019-02-22T07:28:47.072Z,94.39
2019-02-22T07:31:17.603Z,94.38
2019-02-22T07:33:48.323Z,94.78
2019-02-22T07:36:18.874Z,95.09
2019-02-22T07:38:49.376Z,94.81
2019-02-22T07:41:19.919Z,94.26
2019-02-22T07:43:50.583Z,93.71
2019-02-22T07:46:21.095Z,94.03
2019-02-22T07:48:51.683Z,94.31
2019-02-22T07:51:22.167Z,93.82
2019-02-22T07:53:52.691Z,94.18
2019-02-22T07:56:23.221Z,93.96
2019-02-22T07:58:53.842Z,93.87
2019-02-22T08:01:26.909Z,94.14
2019-02-22T08:03:56.888Z,93.40
2019-02-22T08:06:27.439Z,93.06
2019-02-22T08:08:57.959Z,91.07
2019-02-22T08:11:28.413Z,91.93
2019-02-22T08:13:58.937Z,92.13
2019-02-22T08:16:29.485Z,91.90
2019-02-22T08:19:01.764Z,91.25
2019-02-22T08:21:32.289Z,90.47
2019-02-22T08:24:02.771Z,90.07
2019-02-22T08:26:33.302Z,90.75
2019-02-22T08:29:03.896Z,90.45
2019-02-22T08:31:34.384Z,90.98
2019-02-22T08:34:04.939Z,90.85
2019-02-22T08:36:35.433Z,89.00
2019-02-22T08:39:06.546Z,89.17
2019-02-22T08:41:37.117Z,89.32
2019-02-22T08:44:07.551Z,88.08
2019-02-22T08:46:38.162Z,89.62
2019-02-22T08:49:08.697Z,90.55
2019-02-22T08:51:39.209Z,89.68
2019-02-22T08:54:09.695Z,88.93
2019-02-22T08:56:40.233Z,86.90
2019-02-22T08:59:10.775Z,86.91
2019-02-22T09:01:41.276Z,87.15
2019-02-22T09:04:11.881Z,85.97
2019-02-22T09:06:42.407Z,84.32
2019-02-22T09:09:12.919Z,83.48
2019-02-22T09:11:43.446Z,84.95
2019-02-22T09:14:13.980Z,84.80
2019-02-22T09:16:44.525Z,85.51
2019-02-22T09:19:15.080Z,86.47
2019-02-22T09:21:45.614Z,84.93
2019-02-22T09:24:16.101Z,84.38
2019-02-22T09:26:46.688Z,83.63
2019-02-22T09:29:17.165Z,83.33
2019-02-22T09:31:48.069Z,83.83
2019-02-22T09:34:18.663Z,84.45
2019-02-22T09:36:49.135Z,83.35
2019-02-22T09:39:19.718Z,83.65
2019-02-22T09:41:50.238Z,81.87
2019-02-22T09:44:20.850Z,82.67
2019-02-22T09:46:51.348Z,82.20
2019-02-22T09:49:22.003Z,82.46
2019-02-22T09:51:52.501Z,82.07
2019-02-22T09:54:23.031Z,82.35
2019-02-22T09:56:53.556Z,82.44
2019-02-22T09:59:24.081Z,82.43
2019-02-22T10:01:54.614Z,81.36
2019-02-22T10:04:25.150Z,80.32
2019-02-22T10:06:55.639Z,78.72
2019-02-22T10:25:33.973Z,80.02
2019-02-22T10:28:04.482Z,80.43
2019-02-22T10:30:34.999Z,80.58
2019-02-22T10:33:05.509Z,80.59
2019-02-22T10:35:35.977Z,78.45
2019-02-22T10:38:06.515Z,78.52
2019-02-22T10:40:39.250Z,78.99
2019-02-22T10:43:09.260Z,78.32
2019-02-22T10:45:39.779Z,79.08
2019-02-22T10:48:10.303Z,77.57
2019-02-22T10:50:40.838Z,77.88
2019-02-22T10:53:11.378Z,78.16
2019-02-22T10:55:41.922Z,79.67
2019-02-22T10:58:15.158Z,77.89
2019-02-22T11:00:45.647Z,77.72
2019-02-22T11:03:16.134Z,76.94
2019-02-22T11:05:46.590Z,76.51
2019-02-22T11:08:17.110Z,76.62
2019-02-22T11:10:47.704Z,77.30
2019-02-22T11:13:18.191Z,76.99
2019-02-22T11:15:48.680Z,76.97
2019-02-22T11:18:19.170Z,75.55
2019-02-22T11:20:49.637Z,76.96
2019-02-22T11:23:20.196Z,76.07
2019-02-22T11:25:50.658Z,76.76
2019-02-22T11:28:21.127Z,77.56
2019-02-22T11:30:51.542Z,76.52
2019-02-22T11:33:22.014Z,75.97
2019-02-22T11:35:52.496Z,74.63
2019-02-22T11:38:22.976Z,74.35
2019-02-22T11:40:53.426Z,73.79
2019-02-22T11:43:23.920Z,73.50
2019-02-22T11:45:54.393Z,74.14
2019-02-22T11:48:24.922Z,74.12
2019-02-22T11:50:55.385Z,74.99
2019-02-22T11:53:25.903Z,73.59
2019-02-22T11:55:56.474Z,74.07
2019-02-22T11:58:26.955Z,74.18
2019-02-22T12:00:57.453Z,75.55
2019-02-22T12:03:27.928Z,75.67
2019-02-22T12:05:58.390Z,76.09
2019-02-22T12:08:28.863Z,75.01
2019-02-22T12:10:59.380Z,75.66
2019-02-22T12:13:32.101Z,74.87
2019-02-22T12:16:02.073Z,75.78
2019-02-22T12:18:32.535Z,75.63
2019-02-22T12:21:03.027Z,74.46
2019-02-22T12:23:33.566Z,74.20
2019-02-22T12:26:04.033Z,74.16
2019-02-22T12:28:34.515Z,72.81
2019-02-22T12:31:05.515Z,72.97
2019-02-22T12:33:35.989Z,72.30
2019-02-22T12:36:06.457Z,71.42
2019-02-22T12:38:36.986Z,72.52
2019-02-22T12:41:07.489Z,72.33
2019-02-22T12:43:37.953Z,72.87
2019-02-22T12:46:08.466Z,72.19
2019-02-22T12:48:38.957Z,71.29
2019-02-22T12:51:09.462Z,70.78
2019-02-22T12:53:39.988Z,70.70
2019-02-22T12:56:10.495Z,70.46
2019-02-22T12:58:40.850Z,69.95
2019-02-22T13:01:11.389Z,70.86
2019-02-22T13:03:41.866Z,70.64
2019-02-22T13:06:12.321Z,70.23
2019-02-22T13:08:42.959Z,70.58
2019-02-22T13:11:13.343Z,70.92
2019-02-22T13:13:43.865Z,69.62
2019-02-22T13:16:14.382Z,68.30
2019-02-22T13:18:44.888Z,67.80
2019-02-22T13:21:15.412Z,67.80
2019-02-22T13:23:45.917Z,65.78
2019-02-22T13:26:18.025Z,65.91
2019-02-22T13:28:48.731Z,66.56
2019-02-22T13:31:29.457Z,66.58
2019-02-22T13:33:51.443Z,66.60
2019-02-22T13:36:22.349Z,67.82
2019-02-22T13:38:52.906Z,66.84
2019-02-22T13:41:23.416Z,66.89
2019-02-22T13:43:53.975Z,66.80
2019-02-22T13:46:26.555Z,66.34
2019-02-22T13:48:56.726Z,64.88
2019-02-22T13:51:27.284Z,65.09
2019-02-22T13:53:57.897Z,65.57
2019-02-22T13:56:29.952Z,67.30
2019-02-22T13:59:00.651Z,66.33
2019-02-22T14:01:31.165Z,67.26
2019-02-22T14:04:01.652Z,67.54
2019-02-22T14:06:32.133Z,66.36
2019-02-22T14:09:02.621Z,66.84
2019-02-22T14:11:33.168Z,65.97
2019-02-22T14:14:03.653Z,67.55
2019-02-22T14:16:34.208Z,66.61
2019-02-22T14:19:04.751Z,66.50
2019-02-22T14:21:35.335Z,64.90
2019-02-22T14:24:05.931Z,64.86
2019-02-22T14:26:36.419Z,66.38
2019-02-22T14:29:06.970Z,66.29
2019-02-22T14:31:37.466Z,66.62
2019-02-22T14:34:07.988Z,67.34
2019-02-22T14:36:38.524Z,66.28
2019-02-22T14:39:09.887Z,65.20
2019-02-22T14:41:40.415Z,64.31
2019-02-22T14:44:10.955Z,64.59
2019-02-22T14:46:41.543Z,65.42
2019-02-22T14:49:12.119Z,65.73
2019-02-22T14:51:42.664Z,66.59
2019-02-22T14:54:13.219Z,63.84
2019-02-22T14:56:43.780Z,64.07
2019-02-22T14:59:14.549Z,63.73
2019-02-22T15:01:45.068Z,63.73
2019-02-22T15:04:16.438Z,65.30
2019-02-22T15:06:47.069Z,64.71
2019-02-22T15:09:17.563Z,64.96
2019-02-22T15:11:48.076Z,65.00
2019-02-22T15:14:18.552Z,65.34
2019-02-22T15:17:06.797Z,64.10
2019-02-22T15:19:37.513Z,65.61
2019-02-22T15:22:08.087Z,65.99
2019-02-22T15:24:38.715Z,66.84
2019-02-22T15:27:09.215Z,64.71
2019-02-22T15:29:39.743Z,66.14
2019-02-22T15:32:10.281Z,66.33
2019-02-22T15:34:41.134Z,66.62
2019-02-22T15:37:11.949Z,65.05
2019-02-22T15:39:42.471Z,64.56
2019-02-22T15:42:12.976Z,64.56
2019-02-22T15:44:43.514Z,66.23
2019-02-22T15:47:14.069Z,67.71
2019-02-22T15:49:44.538Z,66.88
2019-02-22T15:52:15.118Z,65.87
2019-02-22T15:54:45.648Z,65.13
2019-02-22T15:57:16.143Z,66.48
2019-02-22T15:59:46.670Z,67.15
2019-02-22T16:02:17.238Z,66.59
2019-02-22T16:04:57.715Z,66.58
2019-02-22T16:07:29.232Z,66.41
2019-02-22T16:09:59.735Z,68.05
2019-02-22T16:12:30.283Z,67.59
2019-02-22T16:15:00.796Z,67.79
2019-02-22T16:17:31.390Z,67.84
2019-02-22T16:20:02.050Z,67.71
2019-02-22T16:22:33.035Z,68.43
2019-02-22T16:25:03.631Z,69.60
2019-02-22T16:27:34.278Z,69.03
2019-02-22T16:30:06.227Z,69.97
2019-02-22T16:32:36.871Z,70.22
2019-02-22T16:35:07.785Z,70.24
2019-02-22T16:37:38.310Z,70.81
2019-02-22T16:40:15.724Z,70.28
2019-02-22T16:42:46.278Z,71.88
2019-02-22T16:45:17.075Z,72.39
2019-02-22T16:47:47.708Z,72.06
2019-02-22T16:50:18.554Z,72.16
2019-02-22T16:52:49.158Z,71.84
2019-02-22T16:55:19.792Z,71.93
2019-02-22T16:57:50.433Z,72.31
2019-02-22T17:00:21.771Z,73.74
2019-02-22T17:02:52.362Z,73.67
2019-02-22T17:05:23.067Z,72.92
2019-02-22T17:07:53.715Z,73.51
2019-02-22T17:10:26.629Z,73.68
2019-02-22T17:12:57.180Z,72.96
2019-02-22T17:15:27.840Z,73.15
2019-02-22T17:17:58.720Z,73.95
2019-02-22T17:20:57.721Z,74.23
2019-02-22T17:23:35.699Z,72.96
2019-02-22T17:26:08.604Z,73.71
2019-02-22T17:28:39.225Z,72.73
2019-02-22T17:31:10.813Z,72.99
2019-02-22T17:33:41.531Z,74.17
2019-02-22T17:36:12.289Z,73.67
2019-02-22T17:38:42.881Z,73.85
2019-02-22T17:41:13.503Z,73.23
2019-02-22T17:43:44.135Z,73.38
2019-02-22T17:46:14.742Z,74.08
2019-02-22T17:48:45.395Z,73.80
2019-02-22T17:51:17.161Z,73.88
2019-02-22T17:53:47.818Z,73.83
2019-02-22T17:56:18.423Z,74.23
2019-02-22T17:58:48.951Z,74.19
2019-02-22T18:01:19.484Z,74.80
2019-02-22T18:03:50.089Z,74.43
2019-02-22T18:06:20.617Z,74.20
2019-02-22T18:08:51.203Z,74.87
2019-02-22T18:11:21.780Z,74.48
2019-02-22T18:13:52.331Z,75.67
2019-02-22T18:16:22.836Z,75.81
2019-02-22T18:18:53.400Z,75.27
2019-02-22T18:21:23.945Z,75.13
2019-02-22T18:23:54.472Z,76.16
2019-02-22T18:26:25.015Z,75.96
2019-02-22T18:28:55.545Z,75.49
2019-02-22T18:31:26.066Z,75.41
2019-02-22T18:33:56.992Z,75.91
2019-02-22T18:36:28.078Z,75.98
2019-02-22T18:38:58.678Z,76.00
2019-02-22T18:41:29.401Z,76.68
2019-02-22T18:44:00.063Z,75.97
2019-02-22T18:46:30.596Z,76.28
2019-02-22T18:49:01.335Z,76.53
2019-02-22T18:51:32.535Z,76.36
2019-02-22T18:54:03.047Z,75.74
2019-02-22T18:56:33.661Z,76.55
2019-02-22T18:59:04.185Z,76.58
2019-02-22T19:01:34.786Z,76.41
2019-02-22T19:04:05.481Z,76.45
2019-02-22T19:06:35.983Z,77.10
2019-02-22T19:09:07.856Z,77.71
2019-02-22T19:11:39.223Z,77.10
2019-02-22T19:14:11.019Z,77.39
2019-02-22T19:16:41.801Z,77.68
2019-02-22T19:19:14.387Z,77.77
2019-02-22T19:21:45.973Z,77.66
2019-02-22T19:24:16.509Z,78.21
2019-02-22T19:26:48.636Z,77.93
2019-02-22T19:29:19.050Z,78.09
2019-02-22T19:31:49.620Z,79.29
2019-02-22T19:34:20.256Z,78.12
2019-02-22T19:36:51.916Z,78.50
2019-02-22T19:39:22.558Z,79.13
2019-02-22T19:41:53.248Z,79.54
2019-02-22T19:44:23.808Z,79.68
2019-02-22T19:46:55.728Z,79.33
2019-02-22T19:49:26.412Z,78.70
2019-02-22T19:51:56.963Z,78.80
2019-02-22T19:54:27.503Z,79.72
2019-02-22T19:56:58.020Z,79.22
2019-02-22T19:59:28.584Z,79.93
2019-02-22T20:01:59.138Z,79.69
2019-02-22T20:04:29.683Z,79.80
2019-02-22T20:07:00.202Z,79.92
2019-02-22T20:09:30.780Z,80.25
2019-02-22T20:12:01.362Z,80.55
2019-02-22T20:14:31.891Z,79.98
2019-02-22T20:17:02.458Z,80.69
2019-02-22T20:19:33.129Z,80.46
2019-02-22T20:22:03.703Z,80.37
2019-02-22T20:24:34.234Z,80.33
2019-02-22T20:27:04.792Z,80.61
2019-02-22T20:29:35.526Z,80.59
2019-02-22T20:32:06.045Z,81.67
2019-02-22T20:34:36.579Z,81.41
2019-02-22T20:37:07.201Z,81.78
2019-02-22T20:39:37.921Z,81.87
2019-02-22T20:42:08.460Z,80.97
2019-02-22T20:44:39.041Z,81.30
2019-02-22T20:47:09.620Z,80.95
2019-02-22T20:49:40.088Z,81.40
2019-02-22T20:52:10.585Z,81.15
2019-02-22T20:54:41.267Z,81.16
2019-02-22T20:57:11.795Z,80.92
2019-02-22T20:59:42.375Z,80.39
2019-02-22T21:02:12.894Z,79.78
2019-02-22T21:04:43.433Z,79.72
2019-02-22T21:07:13.936Z,79.85
2019-02-22T21:09:44.376Z,79.71
2019-02-22T21:12:14.960Z,79.93
2019-02-22T21:14:45.460Z,79.54
2019-02-22T21:17:16.021Z,79.54
2019-02-22T21:19:46.584Z,79.67
2019-02-22T21:22:17.092Z,79.04
2019-02-22T21:24:47.676Z,79.02
2019-02-22T21:27:18.224Z,78.77
2019-02-22T21:29:48.778Z,80.01
2019-02-22T21:32:19.260Z,79.67
2019-02-22T21:34:49.838Z,79.79
2019-02-22T21:37:20.426Z,79.75
2019-02-22T21:39:50.959Z,80.62
2019-02-22T21:42:21.424Z,79.95
2019-02-22T21:44:51.967Z,80.00
2019-02-22T21:47:22.500Z,80.25
2019-02-22T21:49:53.008Z,79.99
2019-02-22T21:52:23.612Z,80.04
2019-02-22T21:54:54.142Z,80.06
2019-02-22T21:57:24.620Z,79.51
2019-02-22T21:59:55.154Z,79.86
2019-02-22T22:02:25.701Z,79.71
2019-02-22T22:04:56.309Z,79.68
2019-02-22T22:07:26.848Z,80.16
2019-02-22T22:09:57.574Z,79.81
2019-02-22T22:12:28.116Z,79.11
2019-02-22T22:14:58.785Z,79.95
2019-02-22T22:17:29.608Z,79.50
2019-02-22T22:20:00.341Z,79.77
2019-02-22T22:22:31.198Z,79.80
2019-02-22T22:25:02.092Z,79.53
2019-02-22T22:27:32.825Z,79.88
2019-02-22T22:30:32.665Z,79.21
2019-02-22T22:33:21.441Z,78.81
2019-02-22T22:35:52.968Z,79.04
